Terminal Aerodrome Forecast
Issued by NWS Boise, ID

Home | Current Version | Previous Version | Text Only | Print | Product List | Glossary On
Versions: 1 2 3 4 5 6 7 8 9 10 11 12 13 14 15 16 17 18 19 20
000
FTUS45 KBOI 201358 AAA
TAFBNO
TAF AMD
KBNO 201358Z 2014/2112 05012KT 2SM -SHSN BR SCT008 OVC015
      TEMPO 2019/2022 3/4SM -SHSN BR BKN008
     FM210400 VRB05KT P6SM VCFG SCT008 OVC040=

USA.gov is the U.S. government's official web portal to all federal, state and local government web resources and services.